Terminal Aerodrome Forecast
Issued by NWS Cleveland, OH

Home | Current Version | Previous Version | Graphics & Text | Print | Product List | Glossary On
Versions: 1 2 3 4 5 6 7 8 9 10 11 12 13 14 15
000
FTUS41 KCLE 191100
TAFCAK
TAF
KCAK 191126Z 1912/2012 20010KT P6SM BKN035
     FM191500 19014G22KT P6SM SCT035 OVC100
     FM192100 20015G25KT 2SM -SN BKN015 OVC030
     FM200300 25014G22KT P6SM OVC025=

USA.gov is the U.S. government's official web portal to all federal, state and local government web resources and services.